createdAt,value
2022-09-19T00:02:34.273Z,100.00
2022-09-19T00:07:37.789Z,100.00
2022-09-19T00:12:42.589Z,100.00
2022-09-19T00:17:46.097Z,100.00
2022-09-19T00:23:03.378Z,100.00
2022-09-19T00:28:08.127Z,100.00
2022-09-19T00:33:13.388Z,100.00
2022-09-19T00:38:16.817Z,100.00
2022-09-19T00:43:23.401Z,100.00
2022-09-19T00:48:26.887Z,100.00
2022-09-19T00:53:31.770Z,100.00
2022-09-19T00:58:39.553Z,100.00
2022-09-19T01:03:43.704Z,100.00
2022-09-19T01:09:03.900Z,100.00
2022-09-19T01:14:18.540Z,100.00
2022-09-19T01:19:44.886Z,100.00
2022-09-19T01:24:59.367Z,100.00
2022-09-19T01:30:08.748Z,100.00
2022-09-19T01:35:27.472Z,100.00
2022-09-19T01:40:32.333Z,100.00
2022-09-19T01:45:41.230Z,100.00
2022-09-19T01:51:00.998Z,100.00
2022-09-19T01:56:12.437Z,100.00
2022-09-19T02:01:24.094Z,100.00
2022-09-19T02:06:33.826Z,100.00
2022-09-19T02:11:37.485Z,100.00
2022-09-19T02:16:48.359Z,100.00
2022-09-19T02:21:56.328Z,100.00
2022-09-19T02:27:08.689Z,100.00
2022-09-19T02:32:14.601Z,100.00
2022-09-19T02:37:24.039Z,100.00
2022-09-19T02:42:35.880Z,100.00
2022-09-19T02:47:50.550Z,100.00
2022-09-19T02:52:58.337Z,100.00
2022-09-19T02:58:05.547Z,100.00
2022-09-19T03:03:37.406Z,100.00
2022-09-19T03:08:42.138Z,100.00
2022-09-19T03:13:47.070Z,100.00
2022-09-19T03:18:57.309Z,100.00
2022-09-19T03:24:02.016Z,100.00
2022-09-19T03:29:07.918Z,100.00
2022-09-19T03:34:20.780Z,100.00
2022-09-19T03:39:26.407Z,100.00
2022-09-19T03:44:30.227Z,100.00
2022-09-19T03:49:35.892Z,100.00
2022-09-19T03:54:39.709Z,100.00
2022-09-19T03:59:44.499Z,100.00
2022-09-19T04:04:49.585Z,100.00
2022-09-19T04:09:53.524Z,100.00
2022-09-19T04:14:57.303Z,100.00
2022-09-19T04:20:02.745Z,100.00
2022-09-19T04:25:35.450Z,100.00
2022-09-19T04:30:42.916Z,100.00
2022-09-19T04:35:48.184Z,100.00
2022-09-19T04:40:58.075Z,100.00
2022-09-19T04:46:03.833Z,100.00
2022-09-19T04:51:13.364Z,100.00
2022-09-19T04:56:18.523Z,100.00
2022-09-19T05:01:24.552Z,100.00
2022-09-19T05:06:29.728Z,100.00
2022-09-19T05:11:34.666Z,100.00
2022-09-19T05:16:38.579Z,100.00
2022-09-19T05:21:46.056Z,100.00
2022-09-19T05:26:50.038Z,100.00
2022-09-19T05:31:56.485Z,100.00
2022-09-19T05:37:19.756Z,100.00
2022-09-19T05:42:48.930Z,100.00
2022-09-19T05:47:53.634Z,100.00
2022-09-19T05:53:19.526Z,100.00
2022-09-19T05:58:23.472Z,100.00
2022-09-19T06:03:27.338Z,100.00
2022-09-19T06:08:36.782Z,100.00
2022-09-19T06:13:58.389Z,100.00
2022-09-19T06:19:02.472Z,100.00
2022-09-19T06:24:08.693Z,100.00
2022-09-19T06:29:12.365Z,100.00
2022-09-19T06:34:22.277Z,100.00
2022-09-19T06:39:27.658Z,100.00
2022-09-19T06:44:56.416Z,100.00
2022-09-19T06:50:11.304Z,100.00
2022-09-19T06:55:28.806Z,100.00
2022-09-19T07:00:39.519Z,100.00
2022-09-19T07:05:45.412Z,100.00
2022-09-19T07:11:03.748Z,100.00
2022-09-19T07:16:10.629Z,100.00
2022-09-19T07:21:14.364Z,100.00
2022-09-19T07:26:24.249Z,100.00
2022-09-19T07:31:29.019Z,100.00
2022-09-19T07:36:35.706Z,100.00
2022-09-19T07:41:41.313Z,100.00
2022-09-19T07:47:20.712Z,100.00
2022-09-19T07:52:27.408Z,100.00
2022-09-19T07:57:32.665Z,100.00
2022-09-19T08:02:37.759Z,100.00
2022-09-19T08:07:41.865Z,100.00
2022-09-19T08:12:47.070Z,100.00
2022-09-19T08:17:58.368Z,100.00
2022-09-19T08:23:04.777Z,100.00
2022-09-19T08:28:10.119Z,100.00
2022-09-19T08:33:13.846Z,100.00
2022-09-19T08:38:17.755Z,100.00
2022-09-19T08:43:33.828Z,100.00
2022-09-19T08:48:47.580Z,100.00
2022-09-19T08:53:57.471Z,100.00
2022-09-19T08:59:05.722Z,100.00
2022-09-19T09:04:28.956Z,100.00
2022-09-19T09:09:47.308Z,100.00
2022-09-19T09:15:19.349Z,100.00
2022-09-19T09:20:37.818Z,100.00
2022-09-19T09:25:50.854Z,100.00
2022-09-19T09:31:10.580Z,100.00
2022-09-19T09:36:17.456Z,100.00
2022-09-19T09:41:45.467Z,100.00
2022-09-19T09:47:00.679Z,100.00
2022-09-19T09:52:26.519Z,100.00
2022-09-19T09:57:43.129Z,100.00
2022-09-19T10:03:17.698Z,100.00
2022-09-19T10:08:28.542Z,100.00
2022-09-19T10:13:56.438Z,100.00
2022-09-19T10:19:07.380Z,100.00
2022-09-19T10:24:45.287Z,100.00
2022-09-19T10:30:01.052Z,100.00
2022-09-19T10:35:27.821Z,100.00
2022-09-19T10:40:34.418Z,100.00
2022-09-19T10:45:38.982Z,100.00
2022-09-19T10:50:49.394Z,100.00
2022-09-19T10:55:58.173Z,100.00
2022-09-19T11:01:04.901Z,100.00
2022-09-19T11:06:20.895Z,100.00
2022-09-19T11:11:38.744Z,100.00
2022-09-19T11:17:31.264Z,100.00
2022-09-19T11:22:55.113Z,100.00
2022-09-19T11:28:17.409Z,100.00
2022-09-19T11:39:52.260Z,100.00
2022-09-19T11:45:12.198Z,100.00
2022-09-19T11:50:34.221Z,100.00
2022-09-19T11:55:46.572Z,100.00
2022-09-19T12:01:04.477Z,100.00
2022-09-19T12:06:23.471Z,100.00
2022-09-19T12:11:39.172Z,100.00
2022-09-19T12:16:48.213Z,96.54
2022-09-19T12:21:57.823Z,82.40
2022-09-19T12:27:11.518Z,75.36
2022-09-19T12:32:24.986Z,75.21
2022-09-19T12:37:40.509Z,79.28
2022-09-19T12:42:54.985Z,82.39
2022-09-19T12:48:11.044Z,84.32
2022-09-19T12:53:35.981Z,88.47
2022-09-19T12:58:53.399Z,95.31
2022-09-19T13:04:08.866Z,97.11
2022-09-19T13:09:19.851Z,98.34
2022-09-19T13:14:34.450Z,96.56
2022-09-19T13:19:59.037Z,95.44
2022-09-19T13:25:03.140Z,91.11
2022-09-19T13:30:49.756Z,86.41
2022-09-19T13:35:54.773Z,81.42
2022-09-19T13:41:05.108Z,82.13
2022-09-19T13:46:16.666Z,84.59
2022-09-19T13:51:33.415Z,86.75
2022-09-19T13:56:38.874Z,90.36
2022-09-19T14:01:56.807Z,92.96
2022-09-19T14:13:12.352Z,94.74
2022-09-19T14:18:45.493Z,94.87
2022-09-19T14:23:52.306Z,94.61
2022-09-19T14:29:07.026Z,96.29
2022-09-19T14:34:55.869Z,93.65
2022-09-19T14:40:23.381Z,90.24
2022-09-19T14:45:41.323Z,86.61
2022-09-19T14:50:52.850Z,85.58
2022-09-19T14:56:01.540Z,84.04
2022-09-19T15:01:09.771Z,84.25
2022-09-19T15:06:19.205Z,82.74
2022-09-19T15:11:23.268Z,82.68
2022-09-19T15:16:27.440Z,83.75
2022-09-19T15:21:37.079Z,94.54
2022-09-19T15:26:46.855Z,100.00
2022-09-19T15:31:51.796Z,100.00
2022-09-19T15:36:56.865Z,100.00
2022-09-19T15:42:01.196Z,100.00
2022-09-19T15:47:08.070Z,100.00
2022-09-19T15:52:17.487Z,100.00
2022-09-19T15:57:33.131Z,100.00
2022-09-19T16:02:41.519Z,100.00
2022-09-19T16:08:08.246Z,100.00
2022-09-19T16:13:36.240Z,100.00
2022-09-19T16:18:50.012Z,100.00
2022-09-19T16:23:55.143Z,100.00
2022-09-19T16:29:00.640Z,100.00
2022-09-19T16:34:09.029Z,100.00
2022-09-19T16:39:21.204Z,100.00
2022-09-19T16:44:39.816Z,100.00
2022-09-19T16:49:44.099Z,100.00
2022-09-19T16:54:49.345Z,100.00
2022-09-19T16:59:54.958Z,100.00
2022-09-19T17:05:02.157Z,100.00
2022-09-19T17:10:07.497Z,100.00
2022-09-19T17:15:33.938Z,100.00
2022-09-19T17:20:38.944Z,100.00
2022-09-19T17:25:45.849Z,100.00
2022-09-19T17:30:51.731Z,100.00
2022-09-19T17:35:58.791Z,100.00
2022-09-19T17:41:03.658Z,100.00
2022-09-19T17:46:12.867Z,100.00
2022-09-19T17:51:18.197Z,100.00
2022-09-19T17:56:25.075Z,100.00
2022-09-19T18:01:46.871Z,100.00
2022-09-19T18:06:50.491Z,100.00
2022-09-19T18:11:55.416Z,100.00
2022-09-19T18:16:59.623Z,100.00
2022-09-19T18:22:03.095Z,100.00
2022-09-19T18:27:08.030Z,100.00
2022-09-19T18:32:11.618Z,100.00
2022-09-19T18:37:15.382Z,100.00
2022-09-19T18:42:20.263Z,100.00
2022-09-19T18:47:24.004Z,100.00
2022-09-19T18:52:27.551Z,100.00
2022-09-19T18:57:32.888Z,100.00
2022-09-19T19:02:36.917Z,100.00
2022-09-19T19:07:42.405Z,100.00
2022-09-19T19:12:52.143Z,100.00
2022-09-19T19:17:56.462Z,100.00
2022-09-19T19:23:00.091Z,100.00
2022-09-19T19:28:05.024Z,100.00
2022-09-19T19:33:08.727Z,100.00
2022-09-19T19:38:12.383Z,100.00
2022-09-19T19:43:17.660Z,100.00
2022-09-19T19:48:22.266Z,100.00
2022-09-19T19:53:25.740Z,100.00
2022-09-19T19:58:31.047Z,100.00
2022-09-19T20:03:36.247Z,100.00
2022-09-19T20:08:39.938Z,100.00
2022-09-19T20:13:45.228Z,100.00
2022-09-19T20:18:50.042Z,100.00
2022-09-19T20:23:55.042Z,100.00
2022-09-19T20:29:01.960Z,100.00
2022-09-19T20:34:07.910Z,100.00
2022-09-19T20:39:11.739Z,100.00
2022-09-19T20:44:16.685Z,100.00
2022-09-19T20:49:22.200Z,100.00
2022-09-19T20:54:25.624Z,100.00
2022-09-19T20:59:30.726Z,100.00
2022-09-19T21:04:34.245Z,100.00
2022-09-19T21:09:37.670Z,100.00
2022-09-19T21:14:42.586Z,100.00
2022-09-19T21:19:45.986Z,100.00
2022-09-19T21:24:49.418Z,100.00
2022-09-19T21:29:54.516Z,100.00
2022-09-19T21:34:58.025Z,100.00
2022-09-19T21:40:01.528Z,100.00
2022-09-19T21:45:07.535Z,100.00
2022-09-19T21:50:10.972Z,100.00
2022-09-19T21:55:14.464Z,100.00
2022-09-19T22:00:19.292Z,100.00
2022-09-19T22:05:22.853Z,100.00
2022-09-19T22:10:26.364Z,100.00
2022-09-19T22:15:31.207Z,100.00
2022-09-19T22:20:34.629Z,100.00
2022-09-19T22:25:38.497Z,100.00
2022-09-19T22:30:43.868Z,100.00
2022-09-19T22:35:47.295Z,100.00
2022-09-19T22:40:50.745Z,100.00
2022-09-19T22:45:55.692Z,100.00
2022-09-19T22:50:59.292Z,100.00
2022-09-19T22:56:05.185Z,100.00
2022-09-19T23:01:13.168Z,100.00
2022-09-19T23:06:18.322Z,100.00
2022-09-19T23:11:22.298Z,100.00
2022-09-19T23:23:46.688Z,100.00
2022-09-19T23:28:50.549Z,100.00
2022-09-19T23:33:54.040Z,100.00
2022-09-19T23:38:59.985Z,100.00
2022-09-19T23:44:03.838Z,100.00
2022-09-19T23:49:07.834Z,100.00
2022-09-19T23:54:14.576Z,100.00
2022-09-19T23:59:18.945Z,100.00
